Pecos, TX

2:22 AM CST on January 24, 2017 (GMT -0600)
Pecos Municipal

Weather History for KPEQ - November, 2013

Change the Weather History Date:

Saturday, November 2, 2013

  Actual Average Record
Temperature  
Mean Temperature 56 °F -  
Max Temperature 75 °F 73 °F 90 °F (1973)
Min Temperature 36 °F 40 °F 25 °F (1989)
Degree Days  
Heating Degree Days 10    
Growing Degree Days 6 (Base 50)    
Moisture  
Dew Point 28 °F    
Average Humidity 39    
Maximum Humidity 66    
Minimum Humidity 19    
Precipitation  
Precipitation 0.00 in - - ()
Sea Level Pressure  
Sea Level Pressure 30.23 in    
Wind  
Wind Speed 6 mph (ESE)    
Max Wind Speed 15 mph    
Max Gust Speed 20 mph    
Visibility 10 miles    
Events      
Averages and records for this station are not official NWS values.
T = Trace of Precipitation, MM = Missing Value Source: NWS Daily Summary

Daily Weather History Graph

Daily Weather History Graph

Search for Another Location

Airport or City:

Trip Planner

Search our weather history database for the weather conditions in past years. The results will help you decide how hot, cold, wet, or windy it might be!

Date:

Astronomy

Nov. 02, 2013 Rise Set
Actual Time 8:10 AM CDT 7:03 PM CDT
Civil Twilight 7:45 AM CDT 7:29 PM CDT
Nautical Twilight 7:16 AM CDT 7:57 PM CDT
Astronomical Twilight 6:48 AM CDT 8:26 PM CDT
Moon 7:13 AM CDT (11/2) 6:35 PM CDT (11/2)
Length of Visible Light 11h 43m
Length of Day
10h 53m
Waning Crescent, 1% of the Moon is Illuminated
Nov 2
Waning Crescent
Nov 3
New
Nov 9
First Quarter
Nov 17
Full
Nov 25
Last Quarter

Hourly Weather History & Observations

Time (CDT) Temp. Windchill Dew Point Humidity Pressure Visibility Wind Dir Wind Speed Gust Speed Precip Events Conditions
12:15 AM 45.3 °F 41.6 °F 22.5 °F 40% 30.23 in 10.0 mi WSW 6.9 mph - N/A   Clear
12:35 AM 44.4 °F 40.5 °F 21.9 °F 41% 30.23 in 10.0 mi WSW 6.9 mph - N/A   Clear
12:55 AM 43.9 °F 40.5 °F 22.6 °F 43% 30.24 in 10.0 mi SSW 5.8 mph - N/A   Clear
1:15 AM 45.5 °F 42.5 °F 23.9 °F 43% 30.24 in 10.0 mi SW 5.8 mph - N/A   Clear
1:35 AM 44.2 °F 41.0 °F 23.0 °F 43% 30.24 in 10.0 mi WSW 5.8 mph - N/A   Clear
1:55 AM 41.4 °F 36.8 °F 22.6 °F 47% 30.25 in 10.0 mi West 6.9 mph - N/A   Clear
2:15 AM 40.5 °F 37.3 °F 22.5 °F 49% 30.25 in 10.0 mi West 4.6 mph - N/A   Clear
2:35 AM 40.3 °F 37.1 °F 22.8 °F 50% 30.25 in 10.0 mi West 4.6 mph - N/A   Clear
2:55 AM 40.3 °F - 23.0 °F 50% 30.26 in 10.0 mi Calm Calm - N/A   Clear
3:15 AM 39.4 °F 36.1 °F 25.5 °F 58% 30.26 in 10.0 mi WNW 4.6 mph - N/A   Clear
3:35 AM 40.1 °F 36.9 °F 23.2 °F 51% 30.26 in 10.0 mi NW 4.6 mph - N/A   Clear
3:55 AM 39.4 °F - 23.2 °F 52% 30.26 in 10.0 mi Calm Calm - N/A   Clear
4:15 AM 38.8 °F - 22.5 °F 52% 30.27 in 10.0 mi Calm Calm - N/A   Clear
4:35 AM 37.8 °F - 23.2 °F 56% 30.26 in 10.0 mi Calm Calm - N/A   Clear
4:55 AM 38.5 °F - 23.4 °F 55% 30.26 in 10.0 mi Calm Calm - N/A   Clear
5:15 AM 36.1 °F - 21.4 °F 55% 30.26 in 10.0 mi Calm Calm - N/A   Clear
5:35 AM 36.3 °F 33.7 °F 22.6 °F 58% 30.27 in 10.0 mi North 3.5 mph - N/A   Clear
5:55 AM 38.3 °F - 23.9 °F 56% 30.27 in 10.0 mi Calm Calm - N/A   Clear
6:15 AM 38.3 °F - 24.1 °F 57% 30.27 in 10.0 mi Calm Calm - N/A   Clear
6:35 AM 38.7 °F - 25.3 °F 59% 30.28 in 10.0 mi Calm Calm - N/A   Clear
6:55 AM 39.2 °F 37.0 °F 26.4 °F 60% 30.30 in 10.0 mi NNE 3.5 mph - N/A   Clear
7:15 AM 39.2 °F 34.2 °F 27.1 °F 62% 30.30 in 10.0 mi NE 6.9 mph - N/A   Clear
7:35 AM 40.1 °F 34.7 °F 28.4 °F 63% 30.30 in 10.0 mi ENE 8.1 mph - N/A   Clear
7:55 AM 41.0 °F 35.2 °F 29.3 °F 63% 30.30 in 10.0 mi ENE 9.2 mph - N/A   Clear
8:15 AM 38.5 °F 35.0 °F 27.5 °F 65% 30.32 in 10.0 mi ESE 4.6 mph - N/A   Clear
8:35 AM 38.3 °F 35.9 °F 27.7 °F 66% 30.33 in 10.0 mi SSW 3.5 mph - N/A   Clear
8:55 AM 39.0 °F 36.8 °F 27.1 °F 62% 30.34 in 10.0 mi SW 3.5 mph - N/A   Clear
9:15 AM 41.2 °F - 27.5 °F 58% 30.35 in 10.0 mi Calm Calm - N/A   Clear
9:35 AM 43.7 °F - 28.2 °F 54% 30.36 in 10.0 mi Calm Calm - N/A   Clear
9:55 AM 46.8 °F - 29.3 °F 51% 30.36 in 10.0 mi Calm Calm - N/A   Clear
10:15 AM 48.7 °F - 30.2 °F 49% 30.37 in 10.0 mi Calm Calm - N/A   Clear
10:35 AM 51.8 °F - 31.1 °F 45% 30.37 in 10.0 mi ESE 4.6 mph - N/A   Clear
10:55 AM 53.8 °F - 31.8 °F 43% 30.37 in 10.0 mi ESE 3.5 mph - N/A   Clear
12:15 PM 66.2 °F - 33.8 °F 30% 30.33 in 10.0 mi East 11.5 mph - N/A   Clear
12:35 PM 67.5 °F - 33.6 °F 29% 30.32 in 10.0 mi ESE 11.5 mph - N/A   Clear
12:55 PM 67.6 °F - 33.1 °F 28% 30.31 in 10.0 mi ESE 11.5 mph 17.3 mph N/A   Clear
1:15 PM 68.9 °F - 33.3 °F 27% 30.30 in 10.0 mi ESE 10.4 mph 16.1 mph N/A   Clear
1:35 PM 70.2 °F - 33.4 °F 26% 30.29 in 10.0 mi ESE 8.1 mph - N/A   Clear
1:55 PM 70.7 °F - 33.3 °F 25% 30.26 in 10.0 mi SE 8.1 mph - N/A   Clear
2:15 PM 70.9 °F - 33.1 °F 25% 30.25 in 10.0 mi ESE 11.5 mph 16.1 mph N/A   Clear
2:35 PM 72.0 °F - 32.2 °F 23% 30.23 in 10.0 mi ESE 10.4 mph - N/A   Clear
2:55 PM 72.5 °F - 31.6 °F 22% 30.22 in 10.0 mi SE 6.9 mph - N/A   Clear
3:15 PM 72.5 °F - 31.5 °F 22% 30.21 in 10.0 mi SSE 5.8 mph - N/A   Clear
3:35 PM 73.8 °F - 32.2 °F 22% 30.20 in 10.0 mi ESE 12.7 mph 16.1 mph N/A   Clear
3:55 PM 73.6 °F - 31.8 °F 22% 30.19 in 10.0 mi ESE 10.4 mph - N/A   Clear
4:15 PM 73.2 °F - 31.6 °F 22% 30.17 in 10.0 mi ESE 12.7 mph 17.3 mph N/A   Clear
4:35 PM 74.3 °F - 31.5 °F 21% 30.16 in 10.0 mi ESE 10.4 mph - N/A   Clear
4:55 PM 75.0 °F - 31.5 °F 20% 30.15 in 10.0 mi ESE 15.0 mph 19.6 mph N/A   Clear
5:15 PM 74.3 °F - 31.1 °F 20% 30.15 in 10.0 mi ESE 12.7 mph 17.3 mph N/A   Clear
5:35 PM 74.1 °F - 30.2 °F 20% 30.14 in 10.0 mi ESE 9.2 mph - N/A   Clear
5:55 PM 73.6 °F - 29.1 °F 19% 30.14 in 10.0 mi East 11.5 mph - N/A   Clear
6:15 PM 72.5 °F - 27.9 °F 19% 30.13 in 10.0 mi East 12.7 mph - N/A   Clear
6:35 PM 71.1 °F - 27.5 °F 20% 30.13 in 10.0 mi East 13.8 mph - N/A   Clear
6:55 PM 68.9 °F - 27.1 °F 21% 30.13 in 10.0 mi East 11.5 mph - N/A   Clear
7:15 PM 66.0 °F - 26.4 °F 22% 30.12 in 10.0 mi East 11.5 mph - N/A   Clear
7:35 PM 64.0 °F - 26.4 °F 24% 30.13 in 10.0 mi East 10.4 mph - N/A   Clear
7:55 PM 61.3 °F - 26.6 °F 27% 30.13 in 10.0 mi East 10.4 mph - N/A   Clear
8:15 PM 61.0 °F - 27.1 °F 28% 30.14 in 10.0 mi East 11.5 mph - N/A   Clear
8:35 PM 59.5 °F - 27.1 °F 29% 30.15 in 10.0 mi East 10.4 mph - N/A   Clear
8:55 PM 59.4 °F - 27.5 °F 30% 30.15 in 10.0 mi ESE 11.5 mph - N/A   Clear
9:15 PM 59.2 °F - 27.5 °F 30% 30.16 in 10.0 mi ESE 11.5 mph - N/A   Clear
9:35 PM 58.1 °F - 27.5 °F 31% 30.16 in 10.0 mi ESE 10.4 mph - N/A   Clear
9:55 PM 57.0 °F - 27.3 °F 32% 30.16 in 10.0 mi ESE 10.4 mph - N/A   Clear
10:15 PM 56.3 °F - 27.7 °F 33% 30.16 in 10.0 mi ESE 10.4 mph - N/A   Clear
10:35 PM 56.7 °F - 28.4 °F 34% 30.15 in 10.0 mi ESE 11.5 mph - N/A   Clear
10:55 PM 56.3 °F - 28.8 °F 35% 30.15 in 10.0 mi ESE 10.4 mph - N/A   Clear
11:15 PM 55.4 °F - 28.8 °F 36% 30.15 in 10.0 mi ESE 10.4 mph - N/A   Clear
11:35 PM 53.8 °F - 28.4 °F 38% 30.14 in 10.0 mi ESE 8.1 mph - N/A   Clear
11:55 PM 52.5 °F - 28.6 °F 40% 30.13 in 10.0 mi ESE 8.1 mph - N/A   Clear